createdAt,value
2019-01-14T00:00:27.713Z,6.85
2019-01-14T00:01:27.721Z,6.84
2019-01-14T00:02:28.441Z,6.85
2019-01-14T00:03:28.575Z,6.85
2019-01-14T00:04:27.678Z,6.87
2019-01-14T00:05:27.668Z,6.79
2019-01-14T00:06:27.698Z,6.72
2019-01-14T00:07:27.650Z,6.77
2019-01-14T00:08:27.651Z,6.78
2019-01-14T00:09:31.102Z,6.69
2019-01-14T00:10:27.764Z,6.74
2019-01-14T00:11:27.587Z,6.81
2019-01-14T00:12:27.585Z,6.69
2019-01-14T00:13:27.581Z,6.70
2019-01-14T00:14:27.709Z,6.77
2019-01-14T00:15:27.557Z,6.69
2019-01-14T00:16:27.541Z,6.75
2019-01-14T00:17:27.532Z,6.74
2019-01-14T00:18:27.536Z,6.69
2019-01-14T00:19:27.528Z,6.67
2019-01-14T00:20:27.627Z,6.63
2019-01-14T00:21:27.548Z,6.49
2019-01-14T00:22:27.470Z,6.52
2019-01-14T00:23:27.472Z,6.52
2019-01-14T00:24:27.481Z,6.46
2019-01-14T00:25:27.440Z,6.44
2019-01-14T00:26:27.549Z,6.45
2019-01-14T00:27:27.427Z,6.45
2019-01-14T00:28:27.421Z,6.42
2019-01-14T00:29:27.403Z,6.45
2019-01-14T00:30:27.402Z,6.44
2019-01-14T00:31:27.381Z,6.36
2019-01-14T00:32:27.527Z,6.35
2019-01-14T00:33:29.078Z,6.31
2019-01-14T00:34:27.338Z,6.35
2019-01-14T00:35:27.362Z,6.30
2019-01-14T00:36:27.318Z,6.33
2019-01-14T00:37:27.526Z,6.35
2019-01-14T00:38:27.360Z,6.33
2019-01-14T00:39:27.319Z,6.30
2019-01-14T00:40:27.276Z,6.35
2019-01-14T00:41:27.277Z,6.31
2019-01-14T00:42:27.707Z,6.35
2019-01-14T00:43:27.249Z,6.39
2019-01-14T00:44:27.231Z,6.35
2019-01-14T00:45:27.217Z,6.35
2019-01-14T00:46:27.214Z,6.31
2019-01-14T00:47:27.424Z,6.35
2019-01-14T00:48:27.314Z,6.26
2019-01-14T00:49:27.182Z,6.27
2019-01-14T00:50:27.370Z,6.22
2019-01-14T00:51:27.150Z,6.31
2019-01-14T00:52:27.147Z,6.26
2019-01-14T00:53:27.136Z,6.20
2019-01-14T00:54:27.255Z,6.26
2019-01-14T00:55:27.179Z,6.19
2019-01-14T00:56:27.104Z,6.20
2019-01-14T00:57:27.098Z,6.17
2019-01-14T00:58:27.092Z,6.16
2019-01-14T00:59:27.062Z,6.09
2019-01-14T01:00:27.200Z,6.11
2019-01-14T01:01:27.046Z,6.05
2019-01-14T01:02:27.027Z,6.12
2019-01-14T01:03:27.038Z,6.19
2019-01-14T01:04:27.027Z,6.12
2019-01-14T01:05:27.088Z,6.08
2019-01-14T01:06:26.995Z,6.12
2019-01-14T01:07:26.979Z,6.14
2019-01-14T01:08:26.994Z,6.02
2019-01-14T01:09:26.962Z,6.08
2019-01-14T01:10:26.953Z,6.08
2019-01-14T01:11:27.068Z,6.08
2019-01-14T01:12:27.127Z,6.05
2019-01-14T01:13:26.923Z,6.08
2019-01-14T01:14:26.914Z,6.01
2019-01-14T01:15:26.891Z,6.04
2019-01-14T01:16:26.888Z,6.05
2019-01-14T01:17:26.868Z,6.08
2019-01-14T01:18:26.981Z,6.05
2019-01-14T01:19:26.857Z,6.08
2019-01-14T01:20:26.843Z,5.94
2019-01-14T01:21:26.836Z,6.09
2019-01-14T01:22:27.018Z,6.04
2019-01-14T01:23:27.033Z,6.09
2019-01-14T01:24:26.801Z,6.01
2019-01-14T01:25:26.789Z,6.01
2019-01-14T01:26:26.762Z,6.02
2019-01-14T01:27:26.769Z,6.02
2019-01-14T01:28:26.749Z,5.94
2019-01-14T01:29:27.049Z,5.90
2019-01-14T01:30:26.732Z,5.90
2019-01-14T01:31:26.727Z,5.93
2019-01-14T01:32:26.698Z,5.93
2019-01-14T01:33:27.341Z,5.97
2019-01-14T01:34:26.998Z,5.91
2019-01-14T01:35:26.672Z,5.79
2019-01-14T01:36:31.841Z,5.90
2019-01-14T01:37:27.651Z,5.90
2019-01-14T01:38:26.638Z,5.80
2019-01-14T01:39:26.800Z,5.84
2019-01-14T01:40:26.613Z,5.83
2019-01-14T01:41:26.626Z,5.91
2019-01-14T01:42:26.611Z,5.82
2019-01-14T01:43:26.584Z,5.91
2019-01-14T01:44:27.443Z,5.87
2019-01-14T01:45:26.576Z,5.84
2019-01-14T01:46:26.550Z,5.84
2019-01-14T01:47:26.542Z,5.76
2019-01-14T01:48:26.540Z,5.86
2019-01-14T01:49:26.561Z,5.80
2019-01-14T01:50:26.632Z,5.73
2019-01-14T01:51:26.517Z,5.71
2019-01-14T01:52:26.500Z,5.68
2019-01-14T01:53:26.499Z,5.71
2019-01-14T01:54:26.488Z,5.69
2019-01-14T01:55:26.458Z,5.71
2019-01-14T01:56:26.551Z,5.75
2019-01-14T01:57:26.429Z,5.69
2019-01-14T01:58:26.418Z,5.66
2019-01-14T01:59:26.449Z,5.69
2019-01-14T02:00:26.417Z,5.75
2019-01-14T02:01:26.648Z,5.62
2019-01-14T02:02:26.392Z,5.65
2019-01-14T02:03:27.680Z,5.66
2019-01-14T02:04:26.380Z,5.61
2019-01-14T02:05:26.341Z,5.65
2019-01-14T02:06:26.334Z,5.62
2019-01-14T02:07:26.326Z,5.57
2019-01-14T02:08:26.532Z,5.59
2019-01-14T02:09:26.338Z,5.64
2019-01-14T02:10:26.301Z,5.65
2019-01-14T02:11:26.301Z,5.59
2019-01-14T02:12:26.273Z,5.59
2019-01-14T02:13:26.260Z,5.56
2019-01-14T02:14:26.433Z,5.68
2019-01-14T02:15:26.436Z,5.56
2019-01-14T02:16:26.226Z,5.64
2019-01-14T02:17:26.231Z,5.59
2019-01-14T02:18:26.251Z,5.71
2019-01-14T02:19:26.211Z,5.66
2019-01-14T02:20:26.506Z,5.62
2019-01-14T02:21:26.278Z,5.61
2019-01-14T02:22:26.175Z,5.65
2019-01-14T02:23:26.151Z,5.72
2019-01-14T02:24:26.178Z,5.65
2019-01-14T02:25:26.125Z,5.61
2019-01-14T02:26:26.244Z,5.56
2019-01-14T02:27:26.120Z,5.50
2019-01-14T02:28:26.085Z,5.62
2019-01-14T02:29:26.091Z,5.64
2019-01-14T02:30:26.066Z,5.56
2019-01-14T02:31:26.048Z,5.54
2019-01-14T02:32:26.176Z,5.59
2019-01-14T02:33:26.053Z,5.64
2019-01-14T02:34:27.018Z,5.53
2019-01-14T02:35:26.407Z,5.47
2019-01-14T02:36:26.008Z,5.54
2019-01-14T02:37:26.264Z,5.50
2019-01-14T02:38:25.987Z,5.47
2019-01-14T02:39:25.982Z,5.47
2019-01-14T02:40:25.958Z,5.43
2019-01-14T02:41:25.960Z,5.44
2019-01-14T02:42:25.938Z,5.38
2019-01-14T02:43:26.023Z,5.38
2019-01-14T02:44:25.917Z,5.36
2019-01-14T02:45:25.955Z,5.36
2019-01-14T02:46:25.897Z,5.36
2019-01-14T02:47:26.037Z,5.26
2019-01-14T02:48:26.062Z,5.32
2019-01-14T02:49:25.864Z,5.35
2019-01-14T02:50:25.931Z,5.29
2019-01-14T02:51:25.843Z,5.25
2019-01-14T02:52:26.010Z,5.25
2019-01-14T02:53:25.847Z,5.29
2019-01-14T02:54:26.230Z,5.41
2019-01-14T02:55:25.855Z,5.38
2019-01-14T02:56:25.828Z,5.39
2019-01-14T02:57:25.838Z,5.38
2019-01-14T02:58:25.811Z,5.38
2019-01-14T02:59:25.857Z,5.36
2019-01-14T03:00:26.062Z,5.36
2019-01-14T03:01:25.732Z,5.32
2019-01-14T03:02:25.996Z,5.36
2019-01-14T03:03:25.717Z,5.36
2019-01-14T03:04:25.691Z,5.36
2019-01-14T03:05:25.975Z,5.29
2019-01-14T03:06:25.681Z,5.32
2019-01-14T03:07:25.729Z,5.26
2019-01-14T03:08:25.649Z,5.28
2019-01-14T03:09:25.661Z,5.21
2019-01-14T03:10:25.720Z,5.20
2019-01-14T03:11:25.625Z,5.23
2019-01-14T03:12:25.608Z,5.25
2019-01-14T03:13:25.613Z,5.26
2019-01-14T03:14:25.589Z,5.26
2019-01-14T03:15:25.728Z,5.30
2019-01-14T03:16:26.827Z,5.29
2019-01-14T03:17:25.559Z,5.36
2019-01-14T03:18:25.547Z,5.33
2019-01-14T03:19:25.532Z,5.33
2019-01-14T03:20:25.511Z,5.38
2019-01-14T03:21:25.526Z,5.35
2019-01-14T03:22:25.627Z,5.36
2019-01-14T03:23:25.506Z,5.41
2019-01-14T03:24:25.509Z,5.43
2019-01-14T03:25:25.491Z,5.43
2019-01-14T03:26:26.102Z,5.36
2019-01-14T03:27:25.581Z,5.38
2019-01-14T03:28:25.433Z,5.44
2019-01-14T03:29:25.426Z,5.44
2019-01-14T03:30:25.412Z,5.39
2019-01-14T03:31:25.426Z,5.41
2019-01-14T03:32:25.407Z,5.32
2019-01-14T03:33:25.506Z,5.35
2019-01-14T03:34:25.392Z,5.41
2019-01-14T03:35:25.359Z,5.33
2019-01-14T03:36:25.522Z,5.38
2019-01-14T03:37:25.328Z,5.36
2019-01-14T03:38:25.521Z,5.36
2019-01-14T03:39:25.341Z,5.35
2019-01-14T03:40:25.301Z,5.32
2019-01-14T03:41:25.366Z,5.28
2019-01-14T03:42:25.301Z,5.35
2019-01-14T03:43:25.671Z,5.30
2019-01-14T03:44:25.281Z,5.33
2019-01-14T03:45:25.286Z,5.26
2019-01-14T03:46:25.240Z,5.32
2019-01-14T03:47:25.232Z,5.30
2019-01-14T03:48:25.546Z,5.28
2019-01-14T03:49:25.246Z,5.26
2019-01-14T03:50:25.196Z,5.26
2019-01-14T03:51:25.174Z,5.30
2019-01-14T03:52:25.162Z,5.26
2019-01-14T03:53:25.157Z,5.25
2019-01-14T03:54:25.346Z,5.20
2019-01-14T03:55:25.137Z,5.29
2019-01-14T03:56:25.153Z,5.29
2019-01-14T03:57:25.129Z,5.26
2019-01-14T03:58:25.117Z,5.28
2019-01-14T03:59:25.776Z,5.26
2019-01-14T04:00:25.084Z,5.26
2019-01-14T04:01:25.074Z,5.26
2019-01-14T04:02:25.062Z,5.32
2019-01-14T04:03:25.052Z,5.26
2019-01-14T04:04:25.276Z,5.28
2019-01-14T04:05:25.029Z,5.25
2019-01-14T04:06:25.028Z,5.23
2019-01-14T04:07:25.035Z,5.20
2019-01-14T04:08:24.989Z,5.20
2019-01-14T04:09:25.004Z,5.26
2019-01-14T04:10:25.167Z,5.20
2019-01-14T04:11:24.976Z,5.18
2019-01-14T04:12:24.954Z,5.21
2019-01-14T04:13:25.021Z,5.14
2019-01-14T04:14:24.928Z,5.20
2019-01-14T04:15:24.927Z,5.17
2019-01-14T04:16:25.018Z,5.12
2019-01-14T04:17:24.899Z,5.17
2019-01-14T04:18:24.877Z,5.08
2019-01-14T04:19:24.873Z,5.10
2019-01-14T04:20:24.871Z,5.02
2019-01-14T04:21:24.847Z,5.15
2019-01-14T04:22:25.038Z,5.08
2019-01-14T04:23:24.826Z,5.07
2019-01-14T04:24:24.824Z,5.10
2019-01-14T04:25:24.806Z,5.07
2019-01-14T04:26:24.800Z,5.08
2019-01-14T04:27:25.053Z,5.02
2019-01-14T04:28:24.804Z,5.05
2019-01-14T04:29:24.763Z,5.07
2019-01-14T04:30:24.823Z,4.99
2019-01-14T04:31:24.743Z,5.00
2019-01-14T04:32:24.760Z,5.00
2019-01-14T04:33:24.936Z,5.02
2019-01-14T04:34:24.708Z,5.00
2019-01-14T04:35:25.439Z,4.86
2019-01-14T04:36:24.687Z,4.84
2019-01-14T04:37:24.978Z,4.87
2019-01-14T04:38:24.788Z,4.82
2019-01-14T04:39:27.450Z,4.82
2019-01-14T04:40:24.652Z,4.70
2019-01-14T04:41:24.650Z,4.66
2019-01-14T04:42:24.622Z,4.63
2019-01-14T04:43:24.636Z,4.59
2019-01-14T04:44:24.978Z,4.59
2019-01-14T04:45:24.736Z,4.49
2019-01-14T04:46:24.578Z,4.45
2019-01-14T04:47:24.675Z,4.40
2019-01-14T04:48:24.552Z,4.17
2019-01-14T04:49:24.759Z,4.26
2019-01-14T04:50:24.676Z,4.19
2019-01-14T04:51:24.528Z,4.19
2019-01-14T04:52:24.518Z,4.16
2019-01-14T04:53:24.501Z,4.16
2019-01-14T04:54:24.489Z,4.12
2019-01-14T04:55:24.480Z,4.16
2019-01-14T04:56:24.578Z,3.99
2019-01-14T04:57:24.477Z,4.06
2019-01-14T04:58:24.444Z,4.04
2019-01-14T04:59:24.583Z,4.02
2019-01-14T05:00:24.426Z,4.02
2019-01-14T05:01:24.526Z,3.91
2019-01-14T05:02:24.430Z,3.92
2019-01-14T05:03:24.389Z,3.86
2019-01-14T05:04:24.388Z,3.87
2019-01-14T05:05:24.370Z,3.92
2019-01-14T05:06:24.390Z,3.92
2019-01-14T05:07:29.551Z,3.77
2019-01-14T05:08:25.603Z,3.84
2019-01-14T05:09:24.351Z,3.76
2019-01-14T05:10:24.315Z,3.73
2019-01-14T05:11:24.309Z,3.84
2019-01-14T05:12:24.290Z,3.70
2019-01-14T05:13:24.477Z,3.74
2019-01-14T05:14:24.275Z,3.69
2019-01-14T05:15:24.257Z,3.70
2019-01-14T05:16:24.255Z,3.69
2019-01-14T05:17:24.237Z,3.69
2019-01-14T05:18:24.227Z,3.77
2019-01-14T05:19:24.479Z,3.73
2019-01-14T05:20:24.200Z,3.86
2019-01-14T05:21:24.197Z,3.86
2019-01-14T05:22:24.185Z,3.86
2019-01-14T05:23:24.172Z,3.73
2019-01-14T05:24:24.165Z,3.76
2019-01-14T05:25:26.076Z,3.86
2019-01-14T05:26:24.134Z,3.88
2019-01-14T05:27:24.124Z,3.91
2019-01-14T05:28:24.180Z,3.96
2019-01-14T05:29:24.111Z,3.94
2019-01-14T05:30:24.091Z,3.98
2019-01-14T05:31:24.206Z,4.01
2019-01-14T05:32:24.199Z,4.02
2019-01-14T05:33:24.258Z,4.01
2019-01-14T05:34:24.058Z,4.04
2019-01-14T05:35:24.051Z,4.06
2019-01-14T05:36:24.119Z,4.17
2019-01-14T05:37:24.198Z,4.12
2019-01-14T05:38:24.097Z,4.14
2019-01-14T05:39:23.994Z,4.17
2019-01-14T05:40:24.302Z,4.13
2019-01-14T05:41:23.976Z,4.22
2019-01-14T05:42:24.050Z,4.12
2019-01-14T05:43:24.654Z,4.13
2019-01-14T05:44:23.948Z,4.12
2019-01-14T05:45:23.940Z,4.05
2019-01-14T05:46:23.925Z,4.14
2019-01-14T05:47:23.905Z,4.22
2019-01-14T05:48:24.070Z,4.20
2019-01-14T05:49:23.879Z,4.17
2019-01-14T05:50:23.887Z,4.17
2019-01-14T05:51:23.936Z,4.14
2019-01-14T05:52:23.858Z,4.19
2019-01-14T05:53:23.994Z,4.14
2019-01-14T05:54:24.185Z,4.20
2019-01-14T05:55:23.919Z,4.20
2019-01-14T05:56:23.848Z,4.17
2019-01-14T05:57:23.794Z,4.17
2019-01-14T05:58:23.842Z,4.12
2019-01-14T05:59:24.105Z,4.17
2019-01-14T06:00:23.830Z,4.05
2019-01-14T06:01:23.757Z,4.13
2019-01-14T06:02:23.749Z,4.08
2019-01-14T06:03:23.740Z,4.02
2019-01-14T06:04:23.727Z,4.17
2019-01-14T06:05:23.987Z,4.05
2019-01-14T06:06:23.690Z,4.16
2019-01-14T06:07:23.682Z,4.12
2019-01-14T06:08:23.702Z,4.14
2019-01-14T06:09:23.672Z,4.05
2019-01-14T06:10:24.125Z,4.10
2019-01-14T06:11:23.644Z,4.13
2019-01-14T06:12:23.639Z,4.14
2019-01-14T06:13:23.625Z,4.14
2019-01-14T06:14:23.609Z,4.20
2019-01-14T06:15:23.606Z,4.16
2019-01-14T06:16:24.284Z,4.19
2019-01-14T06:17:23.579Z,4.16
2019-01-14T06:18:23.577Z,4.17
2019-01-14T06:19:23.561Z,4.13
2019-01-14T06:20:23.572Z,4.14
2019-01-14T06:21:23.522Z,4.13
2019-01-14T06:22:23.670Z,4.12
2019-01-14T06:23:23.502Z,4.13
2019-01-14T06:24:23.499Z,4.14
2019-01-14T06:25:23.532Z,4.13
2019-01-14T06:26:23.647Z,4.13
2019-01-14T06:27:23.713Z,4.12
2019-01-14T06:28:23.445Z,4.14
2019-01-14T06:29:23.439Z,4.17
2019-01-14T06:30:23.444Z,4.12
2019-01-14T06:31:23.433Z,4.20
2019-01-14T06:32:23.543Z,4.17
2019-01-14T06:33:23.503Z,4.19
2019-01-14T06:34:23.382Z,4.26
2019-01-14T06:35:23.392Z,4.24
2019-01-14T06:36:24.148Z,4.24
2019-01-14T06:37:23.684Z,4.17
2019-01-14T06:38:23.562Z,4.22
2019-01-14T06:39:23.333Z,4.22
2019-01-14T06:40:23.340Z,4.30
2019-01-14T06:41:23.614Z,4.26
2019-01-14T06:42:23.397Z,4.28
2019-01-14T06:43:23.301Z,4.31
2019-01-14T06:44:23.670Z,4.34
2019-01-14T06:45:23.287Z,4.24
2019-01-14T06:46:23.257Z,4.19
2019-01-14T06:47:23.269Z,3.92
2019-01-14T06:48:23.250Z,3.88
2019-01-14T06:49:23.325Z,3.88
2019-01-14T06:50:23.211Z,3.77
2019-01-14T06:51:23.291Z,3.60
2019-01-14T06:52:23.203Z,3.48
2019-01-14T06:53:23.295Z,3.36
2019-01-14T06:54:23.202Z,3.22
2019-01-14T06:55:23.180Z,3.23
2019-01-14T06:56:23.293Z,3.13
2019-01-14T06:57:23.132Z,3.03
2019-01-14T06:58:23.124Z,3.00
2019-01-14T06:59:23.344Z,2.89
2019-01-14T07:00:23.274Z,2.82
2019-01-14T07:01:23.338Z,2.71
2019-01-14T07:02:23.087Z,2.79
2019-01-14T07:03:23.093Z,2.60
2019-01-14T07:04:23.061Z,2.62
2019-01-14T07:05:23.597Z,2.54
2019-01-14T07:06:23.719Z,2.56
2019-01-14T07:07:23.470Z,2.53
2019-01-14T07:08:23.185Z,2.56
2019-01-14T07:10:34.678Z,2.60
2019-01-14T07:11:34.298Z,2.46
2019-01-14T07:12:34.317Z,2.49
2019-01-14T07:13:34.269Z,2.36
2019-01-14T07:14:34.280Z,2.36
2019-01-14T07:15:34.257Z,2.36
2019-01-14T07:16:34.246Z,2.36
2019-01-14T07:17:34.240Z,2.42
2019-01-14T07:18:34.249Z,2.38
2019-01-14T07:19:34.229Z,2.43
2019-01-14T07:20:34.207Z,2.32
2019-01-14T07:21:34.229Z,2.43
2019-01-14T07:22:34.184Z,2.33
2019-01-14T07:23:34.186Z,2.43
2019-01-14T07:24:34.201Z,2.38
2019-01-14T07:25:34.147Z,2.43
2019-01-14T07:26:34.212Z,2.43
2019-01-14T07:27:34.141Z,2.47
2019-01-14T07:28:34.121Z,2.50
2019-01-14T07:29:34.117Z,2.47
2019-01-14T07:30:34.122Z,2.57
2019-01-14T07:31:34.089Z,2.72
2019-01-14T07:32:34.069Z,2.80
2019-01-14T07:33:34.080Z,2.79
2019-01-14T07:34:34.068Z,2.77
2019-01-14T07:35:34.045Z,2.82
2019-01-14T07:36:34.133Z,2.77
2019-01-14T07:37:34.027Z,2.82
2019-01-14T07:38:34.013Z,2.87
2019-01-14T07:39:34.010Z,2.82
2019-01-14T07:40:33.986Z,2.89
2019-01-14T07:41:34.010Z,2.90
2019-01-14T07:42:33.997Z,2.89
2019-01-14T07:43:33.989Z,2.95
2019-01-14T07:44:33.961Z,2.90
2019-01-14T07:45:33.938Z,3.01
2019-01-14T07:46:33.991Z,2.92
2019-01-14T07:47:33.982Z,3.05
2019-01-14T07:48:33.970Z,3.00
2019-01-14T07:49:33.895Z,3.05
2019-01-14T07:50:33.911Z,3.04
2019-01-14T07:51:33.887Z,3.07
2019-01-14T07:52:34.365Z,3.13
2019-01-14T07:53:33.951Z,3.19
2019-01-14T07:54:33.835Z,3.13
2019-01-14T07:55:33.864Z,3.21
2019-01-14T07:56:33.814Z,3.13
2019-01-14T07:57:33.828Z,3.23
2019-01-14T07:58:33.958Z,3.23
2019-01-14T07:59:33.800Z,3.26
2019-01-14T08:00:33.780Z,3.36
2019-01-14T08:01:33.768Z,3.45
2019-01-14T08:02:33.760Z,3.31
2019-01-14T08:03:33.739Z,3.41
2019-01-14T08:04:33.772Z,3.37
2019-01-14T08:05:33.782Z,3.41
2019-01-14T08:06:33.712Z,3.44
2019-01-14T08:07:33.695Z,3.55
2019-01-14T08:08:33.714Z,3.51
2019-01-14T08:09:33.696Z,3.58
2019-01-14T08:10:33.681Z,3.51
2019-01-14T08:11:33.683Z,3.59
2019-01-14T08:12:33.641Z,3.62
2019-01-14T08:13:33.672Z,3.59
2019-01-14T08:14:33.621Z,3.65
2019-01-14T08:15:33.645Z,3.68
2019-01-14T08:16:33.699Z,3.74
2019-01-14T08:17:33.605Z,3.80
2019-01-14T08:18:33.590Z,3.91
2019-01-14T08:19:33.589Z,3.84
2019-01-14T08:20:33.570Z,3.88
2019-01-14T08:21:33.546Z,3.81
2019-01-14T08:22:33.527Z,3.87
2019-01-14T08:23:33.524Z,3.98
2019-01-14T08:24:33.538Z,3.96
2019-01-14T08:25:33.543Z,4.01
2019-01-14T08:26:33.554Z,4.13
2019-01-14T08:27:33.491Z,4.13
2019-01-14T08:28:33.512Z,4.08
2019-01-14T08:29:33.468Z,4.20
2019-01-14T08:30:34.033Z,4.22
2019-01-14T08:31:33.446Z,4.17
2019-01-14T08:32:33.469Z,4.28
2019-01-14T08:33:33.490Z,4.26
2019-01-14T08:34:33.413Z,4.16
2019-01-14T08:35:33.412Z,4.17
2019-01-14T08:36:33.386Z,4.31
2019-01-14T08:37:33.385Z,4.26
2019-01-14T08:38:33.394Z,4.26
2019-01-14T08:39:33.412Z,4.30
2019-01-14T08:40:33.341Z,4.19
2019-01-14T08:41:33.339Z,4.31
2019-01-14T08:42:33.354Z,4.17
2019-01-14T08:43:33.335Z,4.34
2019-01-14T08:44:33.331Z,4.32
2019-01-14T08:45:33.325Z,4.28
2019-01-14T08:46:33.310Z,4.26
2019-01-14T08:47:33.266Z,4.13
2019-01-14T08:48:33.253Z,4.17
2019-01-14T08:49:33.236Z,4.08
2019-01-14T08:50:33.226Z,4.12
2019-01-14T08:51:33.231Z,4.06
2019-01-14T08:52:33.196Z,4.12
2019-01-14T08:53:34.202Z,4.16
2019-01-14T08:54:33.252Z,4.06
2019-01-14T08:55:33.209Z,4.04
2019-01-14T08:56:33.172Z,4.04
2019-01-14T08:57:33.164Z,4.02
2019-01-14T08:58:33.137Z,3.96
2019-01-14T08:59:33.150Z,3.99
2019-01-14T09:00:33.141Z,3.92
2019-01-14T09:01:33.206Z,3.92
2019-01-14T09:02:33.113Z,3.99
2019-01-14T09:03:33.100Z,3.77
2019-01-14T09:04:33.078Z,3.76
2019-01-14T09:05:33.110Z,3.74
2019-01-14T09:06:33.080Z,3.70
2019-01-14T09:07:33.058Z,3.65
2019-01-14T09:08:33.030Z,3.59
2019-01-14T09:09:33.027Z,3.60
2019-01-14T09:10:33.030Z,3.65
2019-01-14T09:11:33.009Z,3.69
2019-01-14T09:12:32.976Z,3.68
2019-01-14T09:13:32.970Z,3.77
2019-01-14T09:14:32.957Z,3.68
2019-01-14T09:15:32.958Z,3.81
2019-01-14T09:16:32.954Z,3.77
2019-01-14T09:17:32.937Z,3.91
2019-01-14T09:18:32.958Z,3.86
2019-01-14T09:19:32.915Z,3.81
2019-01-14T09:20:32.898Z,3.84
2019-01-14T09:21:32.907Z,3.96
2019-01-14T09:22:32.878Z,3.98
2019-01-14T09:23:32.881Z,3.98
2019-01-14T09:24:32.856Z,3.99
2019-01-14T09:25:32.836Z,3.95
2019-01-14T09:26:32.830Z,3.96
2019-01-14T09:27:32.851Z,3.96
2019-01-14T09:28:32.814Z,3.99
2019-01-14T09:29:32.823Z,4.02
2019-01-14T09:30:32.783Z,3.87
2019-01-14T09:31:32.770Z,3.95
2019-01-14T09:32:32.766Z,3.91
2019-01-14T09:33:32.779Z,3.92
2019-01-14T09:34:32.737Z,3.94
2019-01-14T09:35:32.729Z,3.91
2019-01-14T09:36:32.714Z,3.94
2019-01-14T09:37:32.703Z,3.95
2019-01-14T09:38:35.882Z,4.01
2019-01-14T09:39:32.708Z,4.06
2019-01-14T09:40:32.705Z,3.98
2019-01-14T09:41:32.667Z,4.10
2019-01-14T09:42:32.674Z,4.14
2019-01-14T09:43:32.638Z,4.17
2019-01-14T09:44:32.630Z,4.08
2019-01-14T09:45:32.641Z,4.19
2019-01-14T09:46:32.607Z,4.14
2019-01-14T09:47:32.631Z,4.14
2019-01-14T09:48:32.612Z,4.17
2019-01-14T09:49:32.570Z,4.17
2019-01-14T09:50:32.571Z,4.19
2019-01-14T09:51:32.575Z,4.30
2019-01-14T09:52:32.541Z,4.38
2019-01-14T09:53:32.537Z,4.48
2019-01-14T09:54:32.536Z,4.60
2019-01-14T09:55:32.537Z,4.86
2019-01-14T09:56:32.523Z,5.11
2019-01-14T09:57:32.482Z,5.51
2019-01-14T09:58:32.477Z,6.05
2019-01-14T09:59:32.487Z,6.81
2019-01-14T10:00:32.455Z,6.78
2019-01-14T10:01:32.465Z,6.85
2019-01-14T10:02:32.507Z,7.18
2019-01-14T10:03:32.427Z,8.01
2019-01-14T10:04:32.418Z,9.61
2019-01-14T10:05:32.430Z,10.84
2019-01-14T10:06:32.415Z,11.07
2019-01-14T10:07:32.383Z,11.36
2019-01-14T10:08:32.385Z,11.52
2019-01-14T10:09:32.361Z,10.94
2019-01-14T10:10:32.348Z,10.01
2019-01-14T10:11:32.333Z,9.56
2019-01-14T10:12:32.358Z,9.28
2019-01-14T10:13:32.324Z,10.26
2019-01-14T10:14:32.309Z,11.12
2019-01-14T10:15:32.289Z,11.22
2019-01-14T10:16:32.286Z,10.42
2019-01-14T10:17:32.308Z,9.61
2019-01-14T10:18:32.309Z,9.10
2019-01-14T10:19:32.255Z,8.67
2019-01-14T10:20:32.253Z,9.02
2019-01-14T10:21:32.231Z,10.49
2019-01-14T10:22:32.226Z,11.35
2019-01-14T10:23:32.204Z,12.46
2019-01-14T10:24:32.215Z,13.05
2019-01-14T10:25:32.177Z,12.15
2019-01-14T10:26:32.174Z,11.17
2019-01-14T10:27:32.161Z,10.81
2019-01-14T10:28:32.148Z,9.94
2019-01-14T10:29:32.154Z,9.47
2019-01-14T10:30:32.188Z,9.92
2019-01-14T10:31:32.128Z,10.61
2019-01-14T10:32:32.105Z,9.47
2019-01-14T10:33:32.095Z,9.83
2019-01-14T10:34:32.087Z,9.62
2019-01-14T10:35:32.095Z,9.03
2019-01-14T10:36:32.060Z,8.38
2019-01-14T10:37:32.050Z,8.24
2019-01-14T10:38:32.040Z,9.08
2019-01-14T10:39:32.023Z,9.87
2019-01-14T10:40:32.018Z,9.91
2019-01-14T10:41:42.588Z,9.77
2019-01-14T10:42:31.992Z,9.59
2019-01-14T10:43:31.989Z,9.39
2019-01-14T10:44:31.969Z,10.16
2019-01-14T10:45:33.159Z,9.59
2019-01-14T10:46:31.967Z,9.66
2019-01-14T10:47:31.953Z,10.63
2019-01-14T10:48:31.937Z,9.84
2019-01-14T10:49:31.917Z,10.61
2019-01-14T10:50:31.937Z,12.13
2019-01-14T10:51:31.893Z,12.57
2019-01-14T10:52:31.899Z,12.50
2019-01-14T10:53:31.890Z,12.95
2019-01-14T10:54:31.884Z,12.47
2019-01-14T10:55:31.855Z,11.08
2019-01-14T10:56:31.853Z,10.61
2019-01-14T10:57:31.855Z,10.68
2019-01-14T10:58:31.825Z,12.35
2019-01-14T10:59:31.806Z,12.60
2019-01-14T11:00:31.802Z,13.46
2019-01-14T11:01:31.809Z,12.49
2019-01-14T11:02:31.781Z,11.27
2019-01-14T11:03:31.772Z,10.61
2019-01-14T11:04:31.783Z,10.12
2019-01-14T11:05:31.740Z,11.69
2019-01-14T11:06:31.732Z,12.76
2019-01-14T11:07:31.714Z,12.17
2019-01-14T11:08:31.731Z,13.50
2019-01-14T11:09:31.723Z,14.04
2019-01-14T11:10:31.727Z,14.32
2019-01-14T11:11:31.686Z,13.65
2019-01-14T11:12:31.657Z,12.35
2019-01-14T11:13:31.660Z,10.93
2019-01-14T11:14:31.649Z,10.34
2019-01-14T11:15:31.633Z,10.74
2019-01-14T11:16:31.634Z,11.68
2019-01-14T11:17:31.622Z,11.32
2019-01-14T11:18:31.602Z,10.72
2019-01-14T11:19:31.596Z,9.95
2019-01-14T11:20:31.588Z,9.79
2019-01-14T11:21:31.596Z,9.32
2019-01-14T11:22:31.573Z,9.06
2019-01-14T11:23:31.563Z,8.67
2019-01-14T11:24:31.539Z,8.36
2019-01-14T11:25:31.522Z,8.06
2019-01-14T11:26:31.560Z,8.37
2019-01-14T11:27:31.511Z,8.38
2019-01-14T11:28:31.492Z,9.62
2019-01-14T11:29:31.505Z,9.61
2019-01-14T11:30:31.486Z,9.40
2019-01-14T11:31:31.465Z,9.13
2019-01-14T11:32:31.448Z,8.82
2019-01-14T11:33:31.445Z,9.25
2019-01-14T11:34:31.437Z,9.25
2019-01-14T11:35:31.440Z,8.42
2019-01-14T11:36:31.429Z,7.94
2019-01-14T11:37:31.413Z,7.66
2019-01-14T11:38:31.370Z,7.98
2019-01-14T11:39:31.386Z,8.67
2019-01-14T11:40:31.366Z,8.76
2019-01-14T11:41:31.362Z,9.28
2019-01-14T11:42:31.371Z,9.22
2019-01-14T11:43:31.329Z,8.74
2019-01-14T11:44:31.310Z,8.41
2019-01-14T11:45:31.302Z,8.18
2019-01-14T11:46:31.283Z,7.72
2019-01-14T11:47:31.298Z,7.17
2019-01-14T11:48:31.272Z,6.87
2019-01-14T11:49:31.252Z,6.66
2019-01-14T11:50:31.247Z,6.54
2019-01-14T11:51:31.231Z,6.28
2019-01-14T11:52:31.226Z,6.20
2019-01-14T11:53:31.241Z,6.12
2019-01-14T11:54:31.229Z,6.04
2019-01-14T11:55:31.201Z,6.05
2019-01-14T11:56:31.195Z,5.97
2019-01-14T11:57:31.193Z,5.93
2019-01-14T11:58:31.157Z,5.82
2019-01-14T11:59:31.188Z,5.79
2019-01-14T12:00:36.592Z,5.69
2019-01-14T12:01:32.125Z,5.72
2019-01-14T12:02:31.111Z,5.66
2019-01-14T12:03:31.106Z,5.61
2019-01-14T12:04:31.097Z,5.51
2019-01-14T12:05:31.106Z,5.35
2019-01-14T12:06:31.065Z,5.25
2019-01-14T12:07:31.068Z,5.15
2019-01-14T12:08:31.072Z,5.02
2019-01-14T12:09:31.040Z,4.97
2019-01-14T12:10:31.031Z,4.96
2019-01-14T12:11:31.038Z,5.11
2019-01-14T12:12:31.015Z,5.12
2019-01-14T12:13:31.053Z,5.14
2019-01-14T12:14:31.038Z,5.21
2019-01-14T12:15:30.983Z,5.20
2019-01-14T12:16:30.975Z,5.21
2019-01-14T12:17:30.966Z,5.11
2019-01-14T12:18:30.934Z,5.20
2019-01-14T12:19:30.922Z,5.25
2019-01-14T12:20:30.934Z,5.36
2019-01-14T12:21:30.914Z,5.39
2019-01-14T12:22:30.901Z,5.43
2019-01-14T12:23:30.897Z,5.41
2019-01-14T12:24:30.874Z,5.61
2019-01-14T12:25:30.876Z,5.57
2019-01-14T12:26:31.598Z,5.43
2019-01-14T12:27:30.867Z,5.56
2019-01-14T12:28:30.853Z,5.64
2019-01-14T12:29:30.839Z,5.62
2019-01-14T12:30:30.827Z,5.59
2019-01-14T12:31:30.813Z,5.57
2019-01-14T12:32:30.792Z,5.39
2019-01-14T12:33:30.788Z,5.48
2019-01-14T12:34:30.791Z,5.38
2019-01-14T12:35:30.754Z,5.20
2019-01-14T12:36:30.741Z,5.17
2019-01-14T12:37:31.743Z,5.14
2019-01-14T12:38:30.757Z,5.07
2019-01-14T12:39:30.742Z,5.10
2019-01-14T12:40:30.704Z,5.00
2019-01-14T12:41:30.685Z,5.04
2019-01-14T12:42:30.675Z,4.94
2019-01-14T12:43:30.674Z,4.90
2019-01-14T12:44:31.570Z,4.87
2019-01-14T12:45:30.656Z,4.87
2019-01-14T12:46:30.653Z,4.89
2019-01-14T12:47:30.651Z,4.86
2019-01-14T12:48:30.607Z,4.93
2019-01-14T12:49:30.603Z,4.89
2019-01-14T12:50:30.666Z,4.89
2019-01-14T12:51:30.578Z,4.84
2019-01-14T12:52:30.607Z,4.80
2019-01-14T12:53:30.649Z,4.77
2019-01-14T12:54:30.564Z,4.73
2019-01-14T12:55:30.624Z,4.77
2019-01-14T12:56:30.532Z,4.73
2019-01-14T12:57:30.516Z,4.68
2019-01-14T12:58:30.524Z,4.66
2019-01-14T12:59:30.500Z,4.56
2019-01-14T13:00:30.495Z,4.49
2019-01-14T13:01:30.521Z,4.44
2019-01-14T13:02:30.477Z,4.32
2019-01-14T13:03:30.470Z,4.28
2019-01-14T13:04:30.445Z,4.34
2019-01-14T13:05:30.450Z,4.35
2019-01-14T13:06:30.420Z,4.35
2019-01-14T13:07:30.485Z,4.35
2019-01-14T13:08:30.404Z,4.26
2019-01-14T13:09:30.379Z,4.19
2019-01-14T13:10:30.375Z,3.92
2019-01-14T13:11:30.363Z,3.74
2019-01-14T13:12:30.397Z,3.68
2019-01-14T13:13:30.362Z,3.58
2019-01-14T13:14:30.343Z,3.55
2019-01-14T13:15:30.356Z,3.42
2019-01-14T13:16:30.299Z,3.28
2019-01-14T13:17:30.299Z,3.16